createdAt,value
2019-02-05T00:01:21.261Z,3.63
2019-02-05T00:06:28.859Z,3.30
2019-02-05T00:11:35.907Z,3.03
2019-02-05T00:16:43.197Z,2.50
2019-02-05T00:21:49.959Z,2.87
2019-02-05T00:26:56.205Z,2.07
2019-02-05T00:32:03.655Z,1.67
2019-02-05T00:37:11.754Z,1.90
2019-02-05T00:42:22.838Z,2.17
2019-02-05T00:47:32.250Z,2.13
2019-02-05T00:52:38.289Z,2.13
2019-02-05T00:57:44.502Z,2.00
2019-02-05T01:02:52.432Z,1.97
2019-02-05T01:07:59.637Z,1.73
2019-02-05T01:13:07.338Z,1.40
2019-02-05T01:18:14.217Z,1.50
2019-02-05T01:23:21.759Z,1.40
2019-02-05T01:28:28.633Z,1.47
2019-02-05T01:33:35.046Z,1.60
2019-02-05T01:38:42.862Z,1.60
2019-02-05T01:43:49.642Z,1.60
2019-02-05T01:48:55.930Z,1.60
2019-02-05T01:54:06.282Z,1.50
2019-02-05T01:59:14.060Z,1.80
2019-02-05T02:04:20.927Z,1.40
2019-02-05T02:09:28.918Z,1.60
2019-02-05T02:14:35.916Z,1.63
2019-02-05T02:19:43.116Z,1.50
2019-02-05T02:24:49.391Z,1.73
2019-02-05T02:29:55.666Z,1.90
2019-02-05T02:35:03.729Z,1.60
2019-02-05T02:40:12.376Z,2.03
2019-02-05T02:45:18.545Z,1.87
2019-02-05T02:50:24.821Z,1.77
2019-02-05T02:55:32.490Z,1.60
2019-02-05T03:00:38.887Z,1.50
2019-02-05T03:05:46.512Z,1.50
2019-02-05T03:10:56.139Z,1.80
2019-02-05T03:16:04.079Z,2.13
2019-02-05T03:21:11.122Z,2.13
2019-02-05T03:26:17.095Z,2.20
2019-02-05T03:31:24.531Z,2.10
2019-02-05T03:36:32.252Z,2.43
2019-02-05T03:41:39.440Z,2.50
2019-02-05T03:46:46.735Z,2.37
2019-02-05T03:52:14.356Z,2.23
2019-02-05T03:58:16.358Z,2.37
2019-02-05T04:04:09.776Z,3.07
2019-02-05T04:10:03.569Z,3.57
2019-02-05T04:15:46.402Z,4.20
2019-02-05T04:21:43.400Z,3.97
2019-02-05T04:27:43.832Z,5.13
2019-02-05T04:33:22.133Z,5.80
2019-02-05T04:38:52.644Z,5.00
2019-02-05T04:44:43.663Z,5.30
2019-02-05T04:50:18.834Z,4.80
2019-02-05T04:55:53.639Z,5.60
2019-02-05T05:01:32.264Z,5.60
2019-02-05T05:07:16.145Z,4.77
2019-02-05T05:12:22.921Z,4.93
2019-02-05T05:17:29.038Z,5.90
2019-02-05T05:22:35.558Z,5.80
2019-02-05T05:27:44.261Z,5.17
2019-02-05T05:32:51.994Z,5.50
2019-02-05T05:37:59.657Z,4.53
2019-02-05T05:43:06.816Z,3.87
2019-02-05T05:48:15.808Z,3.97
2019-02-05T05:53:26.138Z,4.80
2019-02-05T05:58:33.534Z,4.70
2019-02-05T06:03:40.028Z,4.30
2019-02-05T06:08:47.515Z,5.10
2019-02-05T06:13:54.549Z,4.40
2019-02-05T06:19:04.882Z,4.97
2019-02-05T06:24:12.215Z,5.87
2019-02-05T06:29:19.303Z,7.27
2019-02-05T06:34:26.321Z,6.07
2019-02-05T06:39:33.693Z,6.07
2019-02-05T06:44:40.239Z,5.80
2019-02-05T06:49:46.805Z,6.60
2019-02-05T06:54:54.372Z,8.60
2019-02-05T07:00:02.007Z,6.63
2019-02-05T07:05:09.566Z,7.87
2019-02-05T07:10:21.467Z,8.27
2019-02-05T07:15:29.095Z,8.30
2019-02-05T07:20:40.482Z,12.07
2019-02-05T07:25:46.615Z,10.30
2019-02-05T07:30:53.174Z,9.27
2019-02-05T07:36:01.343Z,8.57
2019-02-05T07:41:08.362Z,7.73
2019-02-05T07:46:15.829Z,7.17
2019-02-05T07:51:23.959Z,6.77
2019-02-05T07:56:31.616Z,8.33
2019-02-05T08:01:38.871Z,7.50
2019-02-05T08:06:45.291Z,5.83
2019-02-05T08:11:52.957Z,5.80
2019-02-05T08:17:00.644Z,5.90
2019-02-05T08:22:08.011Z,6.13
2019-02-05T08:27:15.376Z,6.40
2019-02-05T08:32:23.099Z,6.77
2019-02-05T08:37:30.915Z,7.73
2019-02-05T08:42:37.077Z,8.90
2019-02-05T08:47:44.392Z,8.37
2019-02-05T08:52:50.431Z,6.40
2019-02-05T08:57:59.783Z,7.37
2019-02-05T09:03:09.615Z,6.70
2019-02-05T09:08:16.668Z,6.50
2019-02-05T09:13:23.847Z,13.17
2019-02-05T09:18:31.812Z,7.97
2019-02-05T09:23:39.428Z,7.60
2019-02-05T09:28:52.363Z,8.10
2019-02-05T09:33:58.963Z,7.23
2019-02-05T09:39:07.748Z,8.43
2019-02-05T09:44:13.851Z,11.07
2019-02-05T09:49:21.644Z,9.33
2019-02-05T09:54:27.929Z,8.87
2019-02-05T09:59:44.915Z,9.77
2019-02-05T10:04:42.678Z,22.97
2019-02-05T10:09:49.248Z,10.03
2019-02-05T10:14:55.327Z,9.40
2019-02-05T10:20:03.135Z,8.63
2019-02-05T10:25:10.255Z,12.00
2019-02-05T10:30:23.047Z,15.93
2019-02-05T10:35:30.042Z,8.97
2019-02-05T10:40:36.275Z,11.67
2019-02-05T10:45:43.939Z,9.07
2019-02-05T10:50:50.441Z,8.03
2019-02-05T10:55:56.365Z,7.80
2019-02-05T11:01:03.834Z,7.57
2019-02-05T11:06:11.375Z,8.53
2019-02-05T11:11:18.509Z,8.63
2019-02-05T11:16:24.978Z,10.13
2019-02-05T11:21:32.023Z,10.00
2019-02-05T11:26:40.141Z,8.70
2019-02-05T11:31:50.976Z,10.57
2019-02-05T11:36:58.493Z,9.10
2019-02-05T11:42:04.790Z,10.37
2019-02-05T11:47:12.575Z,8.73
2019-02-05T11:52:20.526Z,9.10
2019-02-05T11:57:28.514Z,9.57
2019-02-05T12:02:36.128Z,9.37
2019-02-05T12:07:43.929Z,10.20
2019-02-05T12:12:50.198Z,10.33
2019-02-05T12:17:57.423Z,9.13
2019-02-05T12:23:04.103Z,9.53
2019-02-05T12:28:11.894Z,8.93
2019-02-05T12:33:18.818Z,9.07
2019-02-05T12:38:26.326Z,9.23
2019-02-05T12:43:34.257Z,9.00
2019-02-05T12:48:41.207Z,8.37
2019-02-05T12:53:48.715Z,10.00
2019-02-05T12:58:54.878Z,11.00
2019-02-05T13:04:02.867Z,9.63
2019-02-05T13:09:10.716Z,10.30
2019-02-05T13:14:18.712Z,10.93
2019-02-05T13:19:25.374Z,11.50
2019-02-05T13:24:33.162Z,11.90
2019-02-05T13:29:40.452Z,10.63
2019-02-05T13:34:48.157Z,9.70
2019-02-05T13:39:55.075Z,8.60
2019-02-05T13:45:02.989Z,7.97
2019-02-05T13:50:13.548Z,7.80
2019-02-05T13:55:25.057Z,7.70
2019-02-05T14:00:38.139Z,6.90
2019-02-05T14:05:44.976Z,6.57
2019-02-05T14:10:51.745Z,6.77
2019-02-05T14:15:59.637Z,7.30
2019-02-05T14:21:06.706Z,7.17
2019-02-05T14:26:13.687Z,8.33
2019-02-05T14:31:31.054Z,7.07
2019-02-05T14:36:31.156Z,7.00
2019-02-05T14:41:37.925Z,7.00
2019-02-05T14:46:45.192Z,7.33
2019-02-05T14:51:53.217Z,7.57
2019-02-05T14:56:59.316Z,7.03
2019-02-05T15:02:06.945Z,6.03
2019-02-05T15:07:13.816Z,5.60
2019-02-05T15:12:21.579Z,6.33
2019-02-05T15:17:29.351Z,5.77
2019-02-05T15:22:36.490Z,5.57
2019-02-05T15:27:43.750Z,5.83
2019-02-05T15:33:02.293Z,5.43
2019-02-05T15:38:10.087Z,5.60
2019-02-05T15:43:16.310Z,5.47
2019-02-05T15:48:22.333Z,6.03
2019-02-05T15:53:30.066Z,5.73
2019-02-05T15:58:37.294Z,16.00
2019-02-05T16:03:45.207Z,5.33
2019-02-05T16:08:55.508Z,5.90
2019-02-05T16:14:04.169Z,6.20
2019-02-05T16:19:12.071Z,5.93
2019-02-05T16:24:19.542Z,5.80
2019-02-05T16:29:27.016Z,5.37
2019-02-05T16:34:34.503Z,6.30
2019-02-05T16:39:42.210Z,5.80
2019-02-05T16:44:49.802Z,6.70
2019-02-05T16:49:57.145Z,6.27
2019-02-05T16:55:04.925Z,6.63
2019-02-05T17:00:21.480Z,6.77
2019-02-05T17:05:30.387Z,6.87
2019-02-05T17:10:37.529Z,7.83
2019-02-05T17:15:44.328Z,8.27
2019-02-05T17:20:51.247Z,9.30
2019-02-05T17:25:57.825Z,11.97
2019-02-05T17:31:05.285Z,12.70
2019-02-05T17:36:13.199Z,14.00
2019-02-05T17:41:19.612Z,13.30
2019-02-05T17:46:26.397Z,14.43
2019-02-05T17:51:33.938Z,13.17
2019-02-05T17:56:41.283Z,13.50
2019-02-05T18:01:47.571Z,13.40
2019-02-05T18:06:54.121Z,14.63
2019-02-05T18:12:01.854Z,14.97
2019-02-05T18:17:09.658Z,13.03
2019-02-05T18:22:17.470Z,14.43
2019-02-05T18:27:25.469Z,14.73
2019-02-05T18:32:33.422Z,15.03
2019-02-05T18:37:39.979Z,14.80
2019-02-05T18:42:47.189Z,17.47
2019-02-05T18:47:54.188Z,16.10
2019-02-05T18:53:03.312Z,15.33
2019-02-05T18:58:13.375Z,14.33
2019-02-05T19:03:22.790Z,14.57
2019-02-05T19:08:29.630Z,13.90
2019-02-05T19:13:37.466Z,16.03
2019-02-05T19:18:47.676Z,13.53
2019-02-05T19:24:03.063Z,13.10
2019-02-05T19:29:18.419Z,14.77
2019-02-05T19:34:19.630Z,14.93
2019-02-05T19:39:26.606Z,14.00
2019-02-05T19:44:35.524Z,15.80
2019-02-05T19:49:46.354Z,16.40
2019-02-05T19:54:54.107Z,14.83
2019-02-05T20:00:01.822Z,13.70
2019-02-05T20:05:09.394Z,16.07
2019-02-05T20:10:18.568Z,16.70
2019-02-05T20:15:27.671Z,15.13
2019-02-05T20:20:35.541Z,15.40
2019-02-05T20:25:43.188Z,16.63
2019-02-05T20:30:50.564Z,16.70
2019-02-05T20:35:56.881Z,16.60
2019-02-05T20:41:04.243Z,16.10
2019-02-05T20:46:12.114Z,15.13
2019-02-05T20:51:19.097Z,15.93
2019-02-05T20:56:27.423Z,16.53
2019-02-05T21:01:35.666Z,17.63
2019-02-05T21:06:43.541Z,16.00
2019-02-05T21:11:51.496Z,13.57
2019-02-05T21:16:58.891Z,14.30
2019-02-05T21:22:05.202Z,14.47
2019-02-05T21:27:12.756Z,15.23
2019-02-05T21:32:20.723Z,14.13
2019-02-05T21:37:28.760Z,14.47
2019-02-05T21:42:36.842Z,14.20
2019-02-05T21:47:43.811Z,15.07
2019-02-05T21:52:51.814Z,14.37
2019-02-05T21:57:59.839Z,16.37
2019-02-05T22:03:07.761Z,21.83
2019-02-05T22:08:15.348Z,16.43
2019-02-05T22:13:23.275Z,17.43
2019-02-05T22:18:31.318Z,17.63
2019-02-05T22:23:38.675Z,14.93
2019-02-05T22:28:45.098Z,15.93
2019-02-05T22:33:52.667Z,14.63
2019-02-05T22:39:00.570Z,13.63
2019-02-05T22:44:07.168Z,15.43
2019-02-05T22:49:14.322Z,16.40
2019-02-05T22:54:22.203Z,16.20
2019-02-05T22:59:28.881Z,17.90
2019-02-05T23:04:50.756Z,16.47
2019-02-05T23:10:45.734Z,15.83
2019-02-05T23:15:53.782Z,15.20
2019-02-05T23:21:01.168Z,14.67
2019-02-05T23:26:08.175Z,15.77
2019-02-05T23:31:14.519Z,17.07
2019-02-05T23:36:22.353Z,16.73
2019-02-05T23:41:30.170Z,16.80
2019-02-05T23:46:37.434Z,17.60
2019-02-05T23:51:45.059Z,16.73
2019-02-05T23:56:53.947Z,17.47
